sensor_id;sensor_type;location;lat;lon;timestamp;temperature;humidity
53880;DHT22;39791;53.184;5.486;2023-10-08T00:00:47;20.90;99.90
53880;DHT22;39791;53.184;5.486;2023-10-08T00:03:16;21.50;99.90
53880;DHT22;39791;53.184;5.486;2023-10-08T00:05:46;21.10;99.90
53880;DHT22;39791;53.184;5.486;2023-10-08T00:08:12;21.40;99.90
53880;DHT22;39791;53.184;5.486;2023-10-08T00:10:40;21.20;99.90
53880;DHT22;39791;53.184;5.486;2023-10-08T00:13:10;21.30;99.90
53880;DHT22;39791;53.184;5.486;2023-10-08T00:15:38;20.50;99.90
53880;DHT22;39791;53.184;5.486;2023-10-08T00:18:07;20.70;99.90
53880;DHT22;39791;53.184;5.486;2023-10-08T00:20:37;21.80;99.90
53880;DHT22;39791;53.184;5.486;2023-10-08T00:23:22;21.10;99.90
53880;DHT22;39791;53.184;5.486;2023-10-08T00:25:54;21.10;99.90
53880;DHT22;39791;53.184;5.486;2023-10-08T00:28:20;21.70;99.90
53880;DHT22;39791;53.184;5.486;2023-10-08T00:30:47;20.60;99.90
53880;DHT22;39791;53.184;5.486;2023-10-08T00:33:13;20.50;99.90
53880;DHT22;39791;53.184;5.486;2023-10-08T00:35:41;21.40;99.90
53880;DHT22;39791;53.184;5.486;2023-10-08T00:38:09;20.40;99.90
53880;DHT22;39791;53.184;5.486;2023-10-08T00:40:43;20.70;99.90
53880;DHT22;39791;53.184;5.486;2023-10-08T00:43:32;20.60;99.90
53880;DHT22;39791;53.184;5.486;2023-10-08T00:45:59;21.30;99.90
53880;DHT22;39791;53.184;5.486;2023-10-08T00:48:29;21.30;99.90
53880;DHT22;39791;53.184;5.486;2023-10-08T00:51:04;20.50;99.90
53880;DHT22;39791;53.184;5.486;2023-10-08T00:54:04;20.40;99.90
53880;DHT22;39791;53.184;5.486;2023-10-08T00:56:35;20.70;99.90
53880;DHT22;39791;53.184;5.486;2023-10-08T00:59:33;20.60;99.90
53880;DHT22;39791;53.184;5.486;2023-10-08T01:02:10;21.60;99.90
53880;DHT22;39791;53.184;5.486;2023-10-08T01:04:40;20.60;99.90
53880;DHT22;39791;53.184;5.486;2023-10-08T01:07:10;21.70;99.90
53880;DHT22;39791;53.184;5.486;2023-10-08T01:09:41;20.90;99.90
53880;DHT22;39791;53.184;5.486;2023-10-08T01:12:15;21.50;99.90
53880;DHT22;39791;53.184;5.486;2023-10-08T01:14:42;21.40;99.90
53880;DHT22;39791;53.184;5.486;2023-10-08T01:17:11;21.50;99.90
53880;DHT22;39791;53.184;5.486;2023-10-08T01:19:40;21.60;99.90
53880;DHT22;39791;53.184;5.486;2023-10-08T01:22:13;21.60;99.90
53880;DHT22;39791;53.184;5.486;2023-10-08T01:24:47;21.00;99.90
53880;DHT22;39791;53.184;5.486;2023-10-08T01:27:15;21.60;99.90
53880;DHT22;39791;53.184;5.486;2023-10-08T01:29:47;20.70;99.90
53880;DHT22;39791;53.184;5.486;2023-10-08T01:32:13;20.40;99.90
53880;DHT22;39791;53.184;5.486;2023-10-08T01:34:42;21.50;99.90
53880;DHT22;39791;53.184;5.486;2023-10-08T01:37:14;20.80;99.90
53880;DHT22;39791;53.184;5.486;2023-10-08T01:39:39;21.00;99.90
53880;DHT22;39791;53.184;5.486;2023-10-08T01:42:08;20.40;99.90
53880;DHT22;39791;53.184;5.486;2023-10-08T01:44:41;21.20;99.90
53880;DHT22;39791;53.184;5.486;2023-10-08T01:47:07;20.70;99.90
53880;DHT22;39791;53.184;5.486;2023-10-08T01:49:32;21.00;99.90
53880;DHT22;39791;53.184;5.486;2023-10-08T01:51:59;20.70;99.90
53880;DHT22;39791;53.184;5.486;2023-10-08T01:54:30;21.60;99.90
53880;DHT22;39791;53.184;5.486;2023-10-08T01:57:01;20.70;99.90
53880;DHT22;39791;53.184;5.486;2023-10-08T01:59:26;21.90;99.90
53880;DHT22;39791;53.184;5.486;2023-10-08T02:01:52;20.70;99.90
53880;DHT22;39791;53.184;5.486;2023-10-08T02:04:21;21.30;99.90
53880;DHT22;39791;53.184;5.486;2023-10-08T02:06:47;21.50;99.90
53880;DHT22;39791;53.184;5.486;2023-10-08T02:09:13;21.00;99.90
53880;DHT22;39791;53.184;5.486;2023-10-08T02:11:47;21.30;99.90
53880;DHT22;39791;53.184;5.486;2023-10-08T02:14:17;21.20;99.90
53880;DHT22;39791;53.184;5.486;2023-10-08T02:16:45;21.60;99.90
53880;DHT22;39791;53.184;5.486;2023-10-08T02:19:11;21.60;99.90
53880;DHT22;39791;53.184;5.486;2023-10-08T02:21:38;21.70;99.90
53880;DHT22;39791;53.184;5.486;2023-10-08T02:24:06;21.60;99.90
53880;DHT22;39791;53.184;5.486;2023-10-08T02:26:32;20.80;99.90
53880;DHT22;39791;53.184;5.486;2023-10-08T02:29:03;21.70;99.90
53880;DHT22;39791;53.184;5.486;2023-10-08T02:31:39;20.90;99.90
53880;DHT22;39791;53.184;5.486;2023-10-08T02:34:08;21.80;99.90
53880;DHT22;39791;53.184;5.486;2023-10-08T02:36:38;21.00;99.90
53880;DHT22;39791;53.184;5.486;2023-10-08T02:39:06;21.10;99.90
53880;DHT22;39791;53.184;5.486;2023-10-08T02:41:43;20.90;99.90
53880;DHT22;39791;53.184;5.486;2023-10-08T02:44:11;21.80;99.90
53880;DHT22;39791;53.184;5.486;2023-10-08T02:46:44;21.30;99.90
53880;DHT22;39791;53.184;5.486;2023-10-08T02:49:13;21.00;99.90
53880;DHT22;39791;53.184;5.486;2023-10-08T02:51:43;21.40;99.90
53880;DHT22;39791;53.184;5.486;2023-10-08T02:54:10;21.10;99.90
53880;DHT22;39791;53.184;5.486;2023-10-08T02:56:48;21.80;99.90
53880;DHT22;39791;53.184;5.486;2023-10-08T02:59:16;21.60;99.90
53880;DHT22;39791;53.184;5.486;2023-10-08T03:01:42;21.30;99.90
53880;DHT22;39791;53.184;5.486;2023-10-08T03:04:09;21.30;99.90
53880;DHT22;39791;53.184;5.486;2023-10-08T03:06:44;21.10;99.90
53880;DHT22;39791;53.184;5.486;2023-10-08T03:09:11;21.00;99.90
53880;DHT22;39791;53.184;5.486;2023-10-08T03:11:39;21.20;99.90
53880;DHT22;39791;53.184;5.486;2023-10-08T03:14:05;21.40;99.90
53880;DHT22;39791;53.184;5.486;2023-10-08T03:16:40;21.40;99.90
53880;DHT22;39791;53.184;5.486;2023-10-08T03:19:06;21.00;99.90
53880;DHT22;39791;53.184;5.486;2023-10-08T03:21:32;21.70;99.90
53880;DHT22;39791;53.184;5.486;2023-10-08T03:24:03;21.50;99.90
53880;DHT22;39791;53.184;5.486;2023-10-08T03:26:49;21.00;99.90
53880;DHT22;39791;53.184;5.486;2023-10-08T03:29:21;21.00;99.90
53880;DHT22;39791;53.184;5.486;2023-10-08T03:31:46;21.00;99.90
53880;DHT22;39791;53.184;5.486;2023-10-08T03:34:12;21.80;99.90
53880;DHT22;39791;53.184;5.486;2023-10-08T03:36:39;21.20;99.90
53880;DHT22;39791;53.184;5.486;2023-10-08T03:39:13;21.00;99.90
53880;DHT22;39791;53.184;5.486;2023-10-08T03:41:42;21.80;99.90
53880;DHT22;39791;53.184;5.486;2023-10-08T03:44:09;21.00;99.90
53880;DHT22;39791;53.184;5.486;2023-10-08T03:46:42;21.60;99.90
53880;DHT22;39791;53.184;5.486;2023-10-08T03:49:12;21.60;99.90
53880;DHT22;39791;53.184;5.486;2023-10-08T03:51:57;21.30;99.90
53880;DHT22;39791;53.184;5.486;2023-10-08T03:54:23;21.10;99.90
53880;DHT22;39791;53.184;5.486;2023-10-08T03:57:01;21.50;99.90
53880;DHT22;39791;53.184;5.486;2023-10-08T03:59:29;21.80;99.90
53880;DHT22;39791;53.184;5.486;2023-10-08T04:02:00;21.80;99.90
53880;DHT22;39791;53.184;5.486;2023-10-08T04:04:44;21.30;99.90
53880;DHT22;39791;53.184;5.486;2023-10-08T04:07:18;20.90;99.90
53880;DHT22;39791;53.184;5.486;2023-10-08T04:09:50;20.90;99.90
53880;DHT22;39791;53.184;5.486;2023-10-08T04:12:30;21.80;99.90
53880;DHT22;39791;53.184;5.486;2023-10-08T04:14:57;21.60;99.90
53880;DHT22;39791;53.184;5.486;2023-10-08T04:17:23;21.80;99.90
53880;DHT22;39791;53.184;5.486;2023-10-08T04:19:48;20.80;99.90
53880;DHT22;39791;53.184;5.486;2023-10-08T04:22:14;21.80;99.90
53880;DHT22;39791;53.184;5.486;2023-10-08T04:24:43;20.90;99.90
53880;DHT22;39791;53.184;5.486;2023-10-08T04:27:09;21.10;99.90
53880;DHT22;39791;53.184;5.486;2023-10-08T04:29:35;21.20;99.90
53880;DHT22;39791;53.184;5.486;2023-10-08T04:32:04;20.80;99.90
53880;DHT22;39791;53.184;5.486;2023-10-08T04:34:34;20.80;99.90
53880;DHT22;39791;53.184;5.486;2023-10-08T04:37:00;21.50;99.90
53880;DHT22;39791;53.184;5.486;2023-10-08T04:39:37;20.70;99.90
53880;DHT22;39791;53.184;5.486;2023-10-08T04:42:05;20.70;99.90
53880;DHT22;39791;53.184;5.486;2023-10-08T04:44:37;21.30;99.90
53880;DHT22;39791;53.184;5.486;2023-10-08T04:47:07;21.90;99.90
53880;DHT22;39791;53.184;5.486;2023-10-08T04:49:46;20.80;99.90
53880;DHT22;39791;53.184;5.486;2023-10-08T04:52:12;21.50;99.90
53880;DHT22;39791;53.184;5.486;2023-10-08T04:54:42;20.80;99.90
53880;DHT22;39791;53.184;5.486;2023-10-08T04:57:17;20.80;99.90
53880;DHT22;39791;53.184;5.486;2023-10-08T04:59:44;21.30;99.90
53880;DHT22;39791;53.184;5.486;2023-10-08T05:02:12;20.90;99.90
53880;DHT22;39791;53.184;5.486;2023-10-08T05:04:52;21.20;99.90
53880;DHT22;39791;53.184;5.486;2023-10-08T05:07:18;21.10;99.90
53880;DHT22;39791;53.184;5.486;2023-10-08T05:10:06;20.90;99.90
53880;DHT22;39791;53.184;5.486;2023-10-08T05:12:32;21.60;99.90
53880;DHT22;39791;53.184;5.486;2023-10-08T05:15:04;21.30;99.90
53880;DHT22;39791;53.184;5.486;2023-10-08T05:17:45;21.40;99.90
53880;DHT22;39791;53.184;5.486;2023-10-08T05:20:23;21.60;99.90
53880;DHT22;39791;53.184;5.486;2023-10-08T05:22:56;21.40;99.90
53880;DHT22;39791;53.184;5.486;2023-10-08T05:25:32;21.50;99.90
53880;DHT22;39791;53.184;5.486;2023-10-08T05:28:22;21.50;99.90
53880;DHT22;39791;53.184;5.486;2023-10-08T05:30:51;21.40;99.90
53880;DHT22;39791;53.184;5.486;2023-10-08T05:33:35;21.60;99.90
53880;DHT22;39791;53.184;5.486;2023-10-08T05:36:20;20.90;99.90
53880;DHT22;39791;53.184;5.486;2023-10-08T05:38:54;20.80;99.90
53880;DHT22;39791;53.184;5.486;2023-10-08T05:41:38;20.80;99.90
53880;DHT22;39791;53.184;5.486;2023-10-08T05:44:07;20.80;99.90
53880;DHT22;39791;53.184;5.486;2023-10-08T05:46:44;20.90;99.90
53880;DHT22;39791;53.184;5.486;2023-10-08T05:49:19;21.40;99.90
53880;DHT22;39791;53.184;5.486;2023-10-08T05:51:57;20.90;99.90
53880;DHT22;39791;53.184;5.486;2023-10-08T05:54:28;21.80;99.90
53880;DHT22;39791;53.184;5.486;2023-10-08T05:59:44;21.40;99.90
53880;DHT22;39791;53.184;5.486;2023-10-08T06:02:24;20.80;99.90
53880;DHT22;39791;53.184;5.486;2023-10-08T06:05:00;21.30;99.90
53880;DHT22;39791;53.184;5.486;2023-10-08T06:10:33;20.70;99.90
53880;DHT22;39791;53.184;5.486;2023-10-08T06:13:02;20.70;99.90
53880;DHT22;39791;53.184;5.486;2023-10-08T06:15:49;21.20;99.90
53880;DHT22;39791;53.184;5.486;2023-10-08T06:23:26;20.90;99.90
53880;DHT22;39791;53.184;5.486;2023-10-08T06:25:54;21.10;99.90
53880;DHT22;39791;53.184;5.486;2023-10-08T06:28:23;21.10;99.90
53880;DHT22;39791;53.184;5.486;2023-10-08T06:30:53;21.10;99.90
53880;DHT22;39791;53.184;5.486;2023-10-08T06:33:19;21.30;99.90
53880;DHT22;39791;53.184;5.486;2023-10-08T06:35:45;21.00;99.90
53880;DHT22;39791;53.184;5.486;2023-10-08T06:38:22;21.30;99.90
53880;DHT22;39791;53.184;5.486;2023-10-08T06:40:49;21.00;99.90
53880;DHT22;39791;53.184;5.486;2023-10-08T06:43:18;21.20;99.90
53880;DHT22;39791;53.184;5.486;2023-10-08T06:45:50;20.70;99.90
53880;DHT22;39791;53.184;5.486;2023-10-08T06:48:22;20.60;99.90
53880;DHT22;39791;53.184;5.486;2023-10-08T06:50:52;20.70;99.90
53880;DHT22;39791;53.184;5.486;2023-10-08T06:53:22;21.20;99.90
53880;DHT22;39791;53.184;5.486;2023-10-08T06:55:48;20.80;99.90
53880;DHT22;39791;53.184;5.486;2023-10-08T06:58:20;21.20;99.90
53880;DHT22;39791;53.184;5.486;2023-10-08T07:00:45;21.50;99.90
53880;DHT22;39791;53.184;5.486;2023-10-08T07:03:15;21.30;99.90
53880;DHT22;39791;53.184;5.486;2023-10-08T07:05:45;21.30;99.90
53880;DHT22;39791;53.184;5.486;2023-10-08T07:08:23;21.00;99.90
53880;DHT22;39791;53.184;5.486;2023-10-08T07:10:53;21.20;99.90
53880;DHT22;39791;53.184;5.486;2023-10-08T07:13:19;20.80;99.90
53880;DHT22;39791;53.184;5.486;2023-10-08T07:15:49;21.20;99.90
53880;DHT22;39791;53.184;5.486;2023-10-08T07:18:14;20.90;99.90
53880;DHT22;39791;53.184;5.486;2023-10-08T07:20:45;21.10;99.90
53880;DHT22;39791;53.184;5.486;2023-10-08T07:23:11;21.30;99.90
53880;DHT22;39791;53.184;5.486;2023-10-08T07:25:57;20.90;99.90
53880;DHT22;39791;53.184;5.486;2023-10-08T07:28:40;20.80;99.90
53880;DHT22;39791;53.184;5.486;2023-10-08T07:31:16;21.30;99.90
53880;DHT22;39791;53.184;5.486;2023-10-08T07:33:42;21.30;99.90
53880;DHT22;39791;53.184;5.486;2023-10-08T07:36:10;20.90;99.90
53880;DHT22;39791;53.184;5.486;2023-10-08T07:38:40;21.40;99.90
53880;DHT22;39791;53.184;5.486;2023-10-08T07:41:12;21.00;99.90
53880;DHT22;39791;53.184;5.486;2023-10-08T07:43:39;21.60;99.90
53880;DHT22;39791;53.184;5.486;2023-10-08T07:46:05;21.30;99.90
53880;DHT22;39791;53.184;5.486;2023-10-08T07:48:31;21.30;99.90
53880;DHT22;39791;53.184;5.486;2023-10-08T07:50:57;22.00;99.90
53880;DHT22;39791;53.184;5.486;2023-10-08T07:53:25;21.50;99.90
53880;DHT22;39791;53.184;5.486;2023-10-08T07:56:06;21.90;99.90
53880;DHT22;39791;53.184;5.486;2023-10-08T07:58:36;21.90;99.90
53880;DHT22;39791;53.184;5.486;2023-10-08T08:01:06;21.50;99.90
53880;DHT22;39791;53.184;5.486;2023-10-08T08:03:36;22.60;99.90
53880;DHT22;39791;53.184;5.486;2023-10-08T08:06:07;21.80;99.90
53880;DHT22;39791;53.184;5.486;2023-10-08T08:08:33;21.60;99.90
53880;DHT22;39791;53.184;5.486;2023-10-08T08:11:03;22.00;99.90
53880;DHT22;39791;53.184;5.486;2023-10-08T08:13:38;22.20;99.90
53880;DHT22;39791;53.184;5.486;2023-10-08T08:16:04;22.10;99.90
53880;DHT22;39791;53.184;5.486;2023-10-08T08:18:52;22.10;99.90
53880;DHT22;39791;53.184;5.486;2023-10-08T08:21:20;21.90;99.90
53880;DHT22;39791;53.184;5.486;2023-10-08T08:23:49;21.90;99.90
53880;DHT22;39791;53.184;5.486;2023-10-08T08:28:56;22.70;99.90
53880;DHT22;39791;53.184;5.486;2023-10-08T08:31:23;22.00;99.90
53880;DHT22;39791;53.184;5.486;2023-10-08T08:33:50;22.10;99.90
53880;DHT22;39791;53.184;5.486;2023-10-08T08:36:20;22.00;99.90
53880;DHT22;39791;53.184;5.486;2023-10-08T08:38:46;22.00;99.90
53880;DHT22;39791;53.184;5.486;2023-10-08T08:41:13;22.20;99.90
53880;DHT22;39791;53.184;5.486;2023-10-08T08:43:53;22.10;99.90
53880;DHT22;39791;53.184;5.486;2023-10-08T08:46:34;22.00;99.90
53880;DHT22;39791;53.184;5.486;2023-10-08T08:49:05;22.10;99.90
53880;DHT22;39791;53.184;5.486;2023-10-08T08:51:36;22.40;99.90
53880;DHT22;39791;53.184;5.486;2023-10-08T08:54:02;22.30;99.90
53880;DHT22;39791;53.184;5.486;2023-10-08T08:56:35;22.10;99.90
53880;DHT22;39791;53.184;5.486;2023-10-08T08:59:02;22.30;99.90
53880;DHT22;39791;53.184;5.486;2023-10-08T09:01:29;22.40;99.90
53880;DHT22;39791;53.184;5.486;2023-10-08T09:04:02;22.20;99.90
53880;DHT22;39791;53.184;5.486;2023-10-08T09:06:39;22.10;99.90
53880;DHT22;39791;53.184;5.486;2023-10-08T09:09:06;22.30;99.90
53880;DHT22;39791;53.184;5.486;2023-10-08T09:11:48;22.20;99.90
53880;DHT22;39791;53.184;5.486;2023-10-08T09:14:24;22.20;99.90
53880;DHT22;39791;53.184;5.486;2023-10-08T09:16:55;22.30;99.90
53880;DHT22;39791;53.184;5.486;2023-10-08T09:19:22;22.50;99.90
53880;DHT22;39791;53.184;5.486;2023-10-08T09:22:08;22.50;99.90
53880;DHT22;39791;53.184;5.486;2023-10-08T09:24:36;22.80;99.90
53880;DHT22;39791;53.184;5.486;2023-10-08T09:27:11;22.50;99.90
53880;DHT22;39791;53.184;5.486;2023-10-08T09:29:42;22.70;99.90
53880;DHT22;39791;53.184;5.486;2023-10-08T09:32:12;22.40;99.90
53880;DHT22;39791;53.184;5.486;2023-10-08T09:34:49;22.60;99.90
53880;DHT22;39791;53.184;5.486;2023-10-08T09:37:17;22.50;99.90
53880;DHT22;39791;53.184;5.486;2023-10-08T09:39:43;22.60;99.90
53880;DHT22;39791;53.184;5.486;2023-10-08T09:42:12;22.60;99.90
53880;DHT22;39791;53.184;5.486;2023-10-08T09:44:39;22.70;99.90
53880;DHT22;39791;53.184;5.486;2023-10-08T09:47:06;22.60;99.90
53880;DHT22;39791;53.184;5.486;2023-10-08T09:49:41;22.70;99.90
53880;DHT22;39791;53.184;5.486;2023-10-08T09:52:12;22.60;99.90
53880;DHT22;39791;53.184;5.486;2023-10-08T09:54:56;22.80;99.90
53880;DHT22;39791;53.184;5.486;2023-10-08T09:57:22;22.70;99.90
53880;DHT22;39791;53.184;5.486;2023-10-08T09:59:51;22.80;1.00
53880;DHT22;39791;53.184;5.486;2023-10-08T10:02:17;22.70;99.90
53880;DHT22;39791;53.184;5.486;2023-10-08T10:04:45;22.80;99.90
53880;DHT22;39791;53.184;5.486;2023-10-08T10:07:12;22.80;99.90
53880;DHT22;39791;53.184;5.486;2023-10-08T10:09:39;22.80;16.80
53880;DHT22;39791;53.184;5.486;2023-10-08T10:12:11;23.00;99.90
53880;DHT22;39791;53.184;5.486;2023-10-08T10:14:47;22.60;96.80
53880;DHT22;39791;53.184;5.486;2023-10-08T10:19:41;23.50;99.90
53880;DHT22;39791;53.184;5.486;2023-10-08T10:22:14;22.90;17.50
53880;DHT22;39791;53.184;5.486;2023-10-08T10:24:53;22.90;99.90
53880;DHT22;39791;53.184;5.486;2023-10-08T10:27:18;23.00;1.00
53880;DHT22;39791;53.184;5.486;2023-10-08T10:29:44;23.10;99.90
53880;DHT22;39791;53.184;5.486;2023-10-08T10:32:15;23.10;21.20
53880;DHT22;39791;53.184;5.486;2023-10-08T10:34:42;23.20;99.90
53880;DHT22;39791;53.184;5.486;2023-10-08T10:37:08;23.10;99.90
53880;DHT22;39791;53.184;5.486;2023-10-08T10:39:35;23.10;21.80
53880;DHT22;39791;53.184;5.486;2023-10-08T10:42:05;23.10;1.00
53880;DHT22;39791;53.184;5.486;2023-10-08T10:44:33;23.10;99.90
53880;DHT22;39791;53.184;5.486;2023-10-08T10:47:02;23.60;99.90
53880;DHT22;39791;53.184;5.486;2023-10-08T10:49:50;23.00;99.90
53880;DHT22;39791;53.184;5.486;2023-10-08T10:52:22;22.90;19.70
53880;DHT22;39791;53.184;5.486;2023-10-08T10:55:07;23.00;1.00
53880;DHT22;39791;53.184;5.486;2023-10-08T10:57:49;22.90;1.00
53880;DHT22;39791;53.184;5.486;2023-10-08T11:00:25;23.00;1.00
53880;DHT22;39791;53.184;5.486;2023-10-08T11:02:57;22.90;99.90
53880;DHT22;39791;53.184;5.486;2023-10-08T11:05:32;23.60;99.90
53880;DHT22;39791;53.184;5.486;2023-10-08T11:08:03;23.00;99.90
53880;DHT22;39791;53.184;5.486;2023-10-08T11:10:35;23.00;69.60
53880;DHT22;39791;53.184;5.486;2023-10-08T11:13:07;23.10;9.50
53880;DHT22;39791;53.184;5.486;2023-10-08T11:15:39;23.90;1.00
53880;DHT22;39791;53.184;5.486;2023-10-08T11:18:13;23.30;92.60
53880;DHT22;39791;53.184;5.486;2023-10-08T11:20:42;23.90;15.80
53880;DHT22;39791;53.184;5.486;2023-10-08T11:23:35;23.50;1.00
53880;DHT22;39791;53.184;5.486;2023-10-08T11:26:05;23.40;1.00
53880;DHT22;39791;53.184;5.486;2023-10-08T11:28:33;23.50;99.90
53880;DHT22;39791;53.184;5.486;2023-10-08T11:31:07;23.40;99.90
53880;DHT22;39791;53.184;5.486;2023-10-08T11:33:41;23.60;99.90
53880;DHT22;39791;53.184;5.486;2023-10-08T11:36:08;23.40;99.90
53880;DHT22;39791;53.184;5.486;2023-10-08T11:38:53;23.50;99.90
53880;DHT22;39791;53.184;5.486;2023-10-08T11:41:19;23.70;99.90
53880;DHT22;39791;53.184;5.486;2023-10-08T11:43:51;23.30;99.90
53880;DHT22;39791;53.184;5.486;2023-10-08T11:46:27;23.50;99.90
53880;DHT22;39791;53.184;5.486;2023-10-08T11:48:58;23.40;1.00
53880;DHT22;39791;53.184;5.486;2023-10-08T11:51:32;23.40;1.00
53880;DHT22;39791;53.184;5.486;2023-10-08T11:53:59;23.30;1.00
53880;DHT22;39791;53.184;5.486;2023-10-08T11:56:26;23.50;27.10
53880;DHT22;39791;53.184;5.486;2023-10-08T11:58:53;23.30;99.90
53880;DHT22;39791;53.184;5.486;2023-10-08T12:01:22;23.50;99.90
53880;DHT22;39791;53.184;5.486;2023-10-08T12:03:49;23.70;99.90
53880;DHT22;39791;53.184;5.486;2023-10-08T12:06:15;23.30;99.90
53880;DHT22;39791;53.184;5.486;2023-10-08T12:08:47;23.30;99.90
53880;DHT22;39791;53.184;5.486;2023-10-08T12:11:15;23.40;99.90
53880;DHT22;39791;53.184;5.486;2023-10-08T12:13:42;23.50;99.90
53880;DHT22;39791;53.184;5.486;2023-10-08T12:16:14;23.40;1.00
53880;DHT22;39791;53.184;5.486;2023-10-08T12:18:49;23.60;1.00
53880;DHT22;39791;53.184;5.486;2023-10-08T12:21:20;23.50;99.90
53880;DHT22;39791;53.184;5.486;2023-10-08T12:23:45;23.50;99.90
53880;DHT22;39791;53.184;5.486;2023-10-08T12:26:12;23.60;35.10
53880;DHT22;39791;53.184;5.486;2023-10-08T12:28:42;23.80;1.00
53880;DHT22;39791;53.184;5.486;2023-10-08T12:31:13;23.50;1.00
53880;DHT22;39791;53.184;5.486;2023-10-08T12:33:41;23.50;1.00
53880;DHT22;39791;53.184;5.486;2023-10-08T12:36:09;23.60;1.00
53880;DHT22;39791;53.184;5.486;2023-10-08T12:38:42;23.60;1.00
53880;DHT22;39791;53.184;5.486;2023-10-08T12:41:12;23.50;1.00
53880;DHT22;39791;53.184;5.486;2023-10-08T12:43:39;23.60;1.00
53880;DHT22;39791;53.184;5.486;2023-10-08T12:46:05;23.60;1.00
53880;DHT22;39791;53.184;5.486;2023-10-08T12:48:36;23.70;1.00
53880;DHT22;39791;53.184;5.486;2023-10-08T12:51:02;23.60;1.00
53880;DHT22;39791;53.184;5.486;2023-10-08T12:53:31;23.60;99.90
53880;DHT22;39791;53.184;5.486;2023-10-08T12:56:03;23.60;99.90
53880;DHT22;39791;53.184;5.486;2023-10-08T12:58:36;23.50;99.90
53880;DHT22;39791;53.184;5.486;2023-10-08T13:01:16;23.50;99.90
53880;DHT22;39791;53.184;5.486;2023-10-08T13:03:46;23.50;99.90
53880;DHT22;39791;53.184;5.486;2023-10-08T13:06:17;23.50;99.90
53880;DHT22;39791;53.184;5.486;2023-10-08T13:08:54;23.50;99.90
53880;DHT22;39791;53.184;5.486;2023-10-08T13:11:20;23.40;99.90
53880;DHT22;39791;53.184;5.486;2023-10-08T13:13:50;23.50;99.90
53880;DHT22;39791;53.184;5.486;2023-10-08T13:16:16;24.20;99.90
53880;DHT22;39791;53.184;5.486;2023-10-08T13:18:42;23.50;99.90
53880;DHT22;39791;53.184;5.486;2023-10-08T13:21:09;23.60;99.90
53880;DHT22;39791;53.184;5.486;2023-10-08T13:23:35;23.70;99.90
53880;DHT22;39791;53.184;5.486;2023-10-08T13:26:01;23.60;99.90
53880;DHT22;39791;53.184;5.486;2023-10-08T13:28:30;23.60;99.90
53880;DHT22;39791;53.184;5.486;2023-10-08T13:31:02;23.60;99.90
53880;DHT22;39791;53.184;5.486;2023-10-08T13:33:41;23.50;99.90
53880;DHT22;39791;53.184;5.486;2023-10-08T13:36:15;23.50;99.90
53880;DHT22;39791;53.184;5.486;2023-10-08T13:38:41;23.50;99.90
53880;DHT22;39791;53.184;5.486;2023-10-08T13:41:07;23.40;99.90
53880;DHT22;39791;53.184;5.486;2023-10-08T13:43:47;23.50;99.90
53880;DHT22;39791;53.184;5.486;2023-10-08T13:46:15;23.40;1.00
53880;DHT22;39791;53.184;5.486;2023-10-08T13:48:43;23.40;79.20
53880;DHT22;39791;53.184;5.486;2023-10-08T13:51:12;23.30;98.60
53880;DHT22;39791;53.184;5.486;2023-10-08T13:53:49;23.20;69.40
53880;DHT22;39791;53.184;5.486;2023-10-08T13:56:18;23.20;99.90
53880;DHT22;39791;53.184;5.486;2023-10-08T13:58:46;23.10;99.90
53880;DHT22;39791;53.184;5.486;2023-10-08T14:01:15;23.20;99.90
53880;DHT22;39791;53.184;5.486;2023-10-08T14:03:50;23.10;99.90
53880;DHT22;39791;53.184;5.486;2023-10-08T14:06:21;23.10;99.90
53880;DHT22;39791;53.184;5.486;2023-10-08T14:08:47;23.10;99.90
53880;DHT22;39791;53.184;5.486;2023-10-08T14:11:21;23.10;99.90
53880;DHT22;39791;53.184;5.486;2023-10-08T14:13:53;23.10;99.90
53880;DHT22;39791;53.184;5.486;2023-10-08T14:16:22;23.10;99.90
53880;DHT22;39791;53.184;5.486;2023-10-08T14:18:53;23.10;99.90
53880;DHT22;39791;53.184;5.486;2023-10-08T14:21:25;23.20;99.90
53880;DHT22;39791;53.184;5.486;2023-10-08T14:23:56;23.10;1.00
53880;DHT22;39791;53.184;5.486;2023-10-08T14:26:28;23.10;99.90
53880;DHT22;39791;53.184;5.486;2023-10-08T14:29:00;23.10;1.00
53880;DHT22;39791;53.184;5.486;2023-10-08T14:31:33;23.10;1.00
53880;DHT22;39791;53.184;5.486;2023-10-08T14:33:59;23.20;1.00
53880;DHT22;39791;53.184;5.486;2023-10-08T14:36:34;23.10;99.90
53880;DHT22;39791;53.184;5.486;2023-10-08T14:39:18;23.10;1.00
53880;DHT22;39791;53.184;5.486;2023-10-08T14:42:03;23.10;1.00
53880;DHT22;39791;53.184;5.486;2023-10-08T14:44:47;23.20;1.00
53880;DHT22;39791;53.184;5.486;2023-10-08T14:47:14;23.20;54.20
53880;DHT22;39791;53.184;5.486;2023-10-08T14:49:41;23.20;37.80
53880;DHT22;39791;53.184;5.486;2023-10-08T14:52:08;23.20;68.00
53880;DHT22;39791;53.184;5.486;2023-10-08T14:54:33;23.10;99.90
53880;DHT22;39791;53.184;5.486;2023-10-08T14:56:59;23.20;99.90
53880;DHT22;39791;53.184;5.486;2023-10-08T14:59:25;23.10;99.90
53880;DHT22;39791;53.184;5.486;2023-10-08T15:01:54;23.00;99.90
53880;DHT22;39791;53.184;5.486;2023-10-08T15:04:20;22.90;99.90
53880;DHT22;39791;53.184;5.486;2023-10-08T15:06:49;23.70;1.00
53880;DHT22;39791;53.184;5.486;2023-10-08T15:09:15;22.90;1.00
53880;DHT22;39791;53.184;5.486;2023-10-08T15:11:47;23.00;92.50
53880;DHT22;39791;53.184;5.486;2023-10-08T15:14:13;22.90;99.90
53880;DHT22;39791;53.184;5.486;2023-10-08T15:16:41;23.00;99.90
53880;DHT22;39791;53.184;5.486;2023-10-08T15:19:09;22.80;99.90
53880;DHT22;39791;53.184;5.486;2023-10-08T15:21:37;22.70;99.90
53880;DHT22;39791;53.184;5.486;2023-10-08T15:24:05;22.70;1.00
53880;DHT22;39791;53.184;5.486;2023-10-08T15:26:36;22.70;79.80
53880;DHT22;39791;53.184;5.486;2023-10-08T15:29:02;22.80;99.90
53880;DHT22;39791;53.184;5.486;2023-10-08T15:31:28;22.70;1.00
53880;DHT22;39791;53.184;5.486;2023-10-08T15:33:54;22.70;99.90
53880;DHT22;39791;53.184;5.486;2023-10-08T15:36:19;22.70;99.90
53880;DHT22;39791;53.184;5.486;2023-10-08T15:38:45;22.80;1.00
53880;DHT22;39791;53.184;5.486;2023-10-08T15:41:11;22.70;99.90
53880;DHT22;39791;53.184;5.486;2023-10-08T15:43:39;22.60;99.90
53880;DHT22;39791;53.184;5.486;2023-10-08T15:46:05;22.70;99.90
53880;DHT22;39791;53.184;5.486;2023-10-08T15:48:31;22.60;1.00
53880;DHT22;39791;53.184;5.486;2023-10-08T15:50:59;22.80;1.00
53880;DHT22;39791;53.184;5.486;2023-10-08T15:53:25;22.70;38.60
53880;DHT22;39791;53.184;5.486;2023-10-08T15:55:51;22.60;99.90
53880;DHT22;39791;53.184;5.486;2023-10-08T15:58:16;22.50;99.90
53880;DHT22;39791;53.184;5.486;2023-10-08T16:00:42;22.50;99.90
53880;DHT22;39791;53.184;5.486;2023-10-08T16:03:07;22.60;1.00
53880;DHT22;39791;53.184;5.486;2023-10-08T16:05:34;22.50;1.00
53880;DHT22;39791;53.184;5.486;2023-10-08T16:07:59;22.50;99.90
53880;DHT22;39791;53.184;5.486;2023-10-08T16:10:26;22.30;99.90